createdAt,value
2022-10-10T00:05:00.350Z,100.00
2022-10-10T00:10:05.628Z,100.00
2022-10-10T00:15:10.588Z,100.00
2022-10-10T00:20:16.150Z,100.00
2022-10-10T00:25:20.838Z,100.00
2022-10-10T00:30:24.266Z,100.00
2022-10-10T00:35:28.853Z,100.00
2022-10-10T00:40:33.691Z,100.00
2022-10-10T00:45:44.380Z,100.00
2022-10-10T00:50:52.812Z,100.00
2022-10-10T00:55:58.288Z,100.00
2022-10-10T01:01:01.663Z,100.00
2022-10-10T01:06:06.416Z,100.00
2022-10-10T01:11:29.975Z,100.00
2022-10-10T01:16:43.291Z,100.00
2022-10-10T01:21:55.835Z,100.00
2022-10-10T01:27:31.146Z,100.00
2022-10-10T01:32:44.008Z,100.00
2022-10-10T01:37:55.083Z,100.00
2022-10-10T01:43:02.373Z,100.00
2022-10-10T01:48:08.739Z,100.00
2022-10-10T01:53:20.525Z,100.00
2022-10-10T01:58:38.734Z,100.00
2022-10-10T02:03:47.839Z,100.00
2022-10-10T02:08:55.756Z,100.00
2022-10-10T02:14:04.021Z,100.00
2022-10-10T02:19:11.803Z,100.00
2022-10-10T02:24:16.745Z,100.00
2022-10-10T02:29:23.902Z,100.00
2022-10-10T02:34:33.645Z,100.00
2022-10-10T02:39:40.454Z,100.00
2022-10-10T02:44:47.198Z,100.00
2022-10-10T02:49:52.841Z,100.00
2022-10-10T02:54:56.268Z,100.00
2022-10-10T02:59:59.677Z,100.00
2022-10-10T03:05:05.897Z,100.00
2022-10-10T03:10:10.615Z,100.00
2022-10-10T03:15:14.026Z,100.00
2022-10-10T03:20:18.740Z,100.00
2022-10-10T03:25:22.134Z,100.00
2022-10-10T03:30:26.614Z,100.00
2022-10-10T03:35:31.553Z,100.00
2022-10-10T03:40:35.247Z,100.00
2022-10-10T03:45:39.389Z,100.00
2022-10-10T03:50:44.651Z,100.00
2022-10-10T03:55:48.476Z,100.00
2022-10-10T04:00:56.435Z,100.00
2022-10-10T04:06:01.665Z,100.00
2022-10-10T04:11:05.190Z,100.00
2022-10-10T04:16:08.691Z,100.00
2022-10-10T04:21:13.679Z,100.00
2022-10-10T04:26:17.084Z,100.00
2022-10-10T04:31:22.770Z,100.00
2022-10-10T04:36:29.762Z,100.00
2022-10-10T04:41:33.330Z,100.00
2022-10-10T04:46:37.322Z,100.00
2022-10-10T04:51:42.065Z,100.00
2022-10-10T04:56:46.048Z,100.00
2022-10-10T05:01:49.702Z,100.00
2022-10-10T05:06:54.439Z,100.00
2022-10-10T05:11:57.743Z,100.00
2022-10-10T05:17:01.115Z,100.00
2022-10-10T05:22:06.104Z,100.00
2022-10-10T05:27:09.568Z,100.00
2022-10-10T05:32:13.007Z,100.00
2022-10-10T05:37:18.122Z,100.00
2022-10-10T05:42:21.753Z,100.00
2022-10-10T05:47:28.077Z,100.00
2022-10-10T05:52:35.263Z,100.00
2022-10-10T05:57:38.664Z,100.00
2022-10-10T06:02:42.245Z,100.00
2022-10-10T06:08:04.632Z,100.00
2022-10-10T06:13:10.690Z,100.00
2022-10-10T06:18:14.285Z,100.00
2022-10-10T06:23:20.099Z,100.00
2022-10-10T06:28:23.983Z,100.00
2022-10-10T06:33:27.517Z,100.00
2022-10-10T06:38:32.283Z,100.00
2022-10-10T06:43:36.283Z,100.00
2022-10-10T06:48:39.716Z,100.00
2022-10-10T06:53:45.383Z,100.00
2022-10-10T06:58:49.201Z,100.00
2022-10-10T07:03:52.739Z,100.00
2022-10-10T07:08:58.224Z,100.00
2022-10-10T07:14:01.615Z,100.00
2022-10-10T07:19:05.296Z,100.00
2022-10-10T07:24:10.249Z,100.00
2022-10-10T07:29:13.883Z,100.00
2022-10-10T07:34:17.292Z,100.00
2022-10-10T07:39:22.641Z,100.00
2022-10-10T07:44:26.312Z,100.00
2022-10-10T07:49:30.068Z,100.00
2022-10-10T07:54:34.964Z,99.41
2022-10-10T07:59:40.786Z,98.96
2022-10-10T08:04:44.512Z,98.13
2022-10-10T08:09:50.168Z,97.19
2022-10-10T08:14:53.623Z,95.75
2022-10-10T08:19:56.985Z,93.90
2022-10-10T08:25:01.932Z,94.52
2022-10-10T08:30:06.153Z,95.23
2022-10-10T08:35:09.890Z,94.64
2022-10-10T08:40:16.747Z,93.08
2022-10-10T08:45:23.962Z,94.37
2022-10-10T08:50:32.021Z,96.03
2022-10-10T08:55:39.753Z,92.15
2022-10-10T09:00:47.466Z,90.52
2022-10-10T09:06:05.773Z,89.97
2022-10-10T09:11:21.744Z,88.59
2022-10-10T09:16:41.487Z,89.89
2022-10-10T09:21:45.860Z,92.28
2022-10-10T09:26:54.149Z,89.18
2022-10-10T09:32:03.993Z,88.45
2022-10-10T09:37:24.239Z,91.85
2022-10-10T09:42:42.397Z,87.74
2022-10-10T09:47:46.218Z,86.99
2022-10-10T09:52:50.802Z,82.66
2022-10-10T09:57:58.920Z,76.16
2022-10-10T10:03:16.553Z,74.94
2022-10-10T10:08:27.172Z,77.01
2022-10-10T10:13:34.535Z,74.43
2022-10-10T10:18:43.032Z,74.48
2022-10-10T10:23:53.758Z,73.75
2022-10-10T10:28:59.212Z,73.40
2022-10-10T10:34:17.685Z,72.59
2022-10-10T10:39:38.484Z,74.81
2022-10-10T10:44:51.618Z,72.82
2022-10-10T10:50:07.180Z,72.22
2022-10-10T10:55:19.980Z,72.60
2022-10-10T11:01:23.478Z,74.70
2022-10-10T11:05:56.351Z,73.81
2022-10-10T11:11:14.258Z,74.85
2022-10-10T11:16:46.777Z,76.48
2022-10-10T11:21:51.117Z,73.70
2022-10-10T11:27:00.579Z,73.88
2022-10-10T11:32:12.268Z,73.64
2022-10-10T11:37:21.112Z,73.67
2022-10-10T11:42:31.869Z,73.13
2022-10-10T11:47:41.530Z,73.97
2022-10-10T11:52:57.190Z,73.42
2022-10-10T11:58:27.615Z,75.19
2022-10-10T12:03:32.955Z,73.35
2022-10-10T12:08:41.113Z,75.29
2022-10-10T12:13:47.209Z,73.25
2022-10-10T12:18:56.268Z,73.29
2022-10-10T12:24:09.732Z,72.13
2022-10-10T12:29:13.080Z,71.44
2022-10-10T12:34:43.164Z,70.47
2022-10-10T12:40:19.102Z,69.87
2022-10-10T12:45:59.339Z,70.92
2022-10-10T12:51:04.611Z,71.24
2022-10-10T12:56:14.755Z,71.83
2022-10-10T13:01:27.136Z,74.46
2022-10-10T13:06:37.000Z,75.34
2022-10-10T13:11:56.121Z,75.00
2022-10-10T13:16:59.719Z,74.50
2022-10-10T13:22:04.620Z,75.96
2022-10-10T13:27:14.333Z,76.68
2022-10-10T13:32:21.325Z,79.31
2022-10-10T13:37:26.808Z,78.50
2022-10-10T13:42:34.262Z,78.97
2022-10-10T13:47:48.047Z,79.17
2022-10-10T13:53:32.461Z,79.17
2022-10-10T13:58:41.931Z,78.78
2022-10-10T14:03:47.615Z,79.22
2022-10-10T14:08:54.037Z,77.53
2022-10-10T14:14:04.079Z,76.21
2022-10-10T14:19:18.157Z,78.82
2022-10-10T14:24:24.786Z,79.40
2022-10-10T14:29:28.939Z,78.95
2022-10-10T14:34:32.925Z,80.12
2022-10-10T14:39:37.840Z,81.75
2022-10-10T14:44:41.622Z,82.71
2022-10-10T14:49:46.255Z,83.65
2022-10-10T14:54:50.997Z,82.56
2022-10-10T14:59:55.418Z,85.35
2022-10-10T15:04:58.828Z,85.66
2022-10-10T15:10:35.160Z,86.06
2022-10-10T15:15:28.862Z,85.61
2022-10-10T15:20:32.606Z,86.56
2022-10-10T15:25:39.965Z,88.06
2022-10-10T15:30:46.744Z,95.24
2022-10-10T15:36:08.969Z,98.45
2022-10-10T15:41:15.284Z,100.00
2022-10-10T15:46:19.267Z,100.00
2022-10-10T15:51:24.597Z,100.00
2022-10-10T15:56:30.681Z,100.00
2022-10-10T16:01:34.208Z,100.00
2022-10-10T16:06:37.740Z,100.00
2022-10-10T16:11:42.527Z,100.00
2022-10-10T16:16:45.840Z,100.00
2022-10-10T16:21:50.029Z,100.00
2022-10-10T16:26:54.880Z,100.00
2022-10-10T16:31:58.728Z,100.00
2022-10-10T16:37:04.897Z,100.00
2022-10-10T16:42:09.711Z,100.00
2022-10-10T16:47:13.526Z,100.00
2022-10-10T16:52:19.254Z,100.00
2022-10-10T16:57:26.148Z,100.00
2022-10-10T17:02:29.563Z,100.00
2022-10-10T17:07:32.982Z,100.00
2022-10-10T17:12:37.866Z,100.00
2022-10-10T17:17:41.517Z,100.00
2022-10-10T17:22:44.936Z,100.00
2022-10-10T17:27:49.717Z,100.00
2022-10-10T17:32:53.291Z,100.00
2022-10-10T17:37:56.684Z,100.00
2022-10-10T17:43:04.585Z,100.00
2022-10-10T17:48:09.383Z,100.00
2022-10-10T17:53:13.584Z,100.00
2022-10-10T17:58:20.348Z,100.00
2022-10-10T18:03:24.101Z,100.00
2022-10-10T18:08:27.649Z,100.00
2022-10-10T18:13:48.733Z,100.00
2022-10-10T18:18:54.791Z,100.00
2022-10-10T18:23:58.292Z,100.00
2022-10-10T18:29:03.739Z,100.00
2022-10-10T18:34:12.967Z,100.00
2022-10-10T18:39:22.238Z,100.00
2022-10-10T18:44:29.921Z,100.00
2022-10-10T18:49:33.293Z,100.00
2022-10-10T18:54:37.785Z,100.00
2022-10-10T18:59:42.647Z,100.00
2022-10-10T19:04:51.888Z,100.00
2022-10-10T19:09:55.884Z,100.00
2022-10-10T19:15:04.850Z,100.00
2022-10-10T19:20:09.426Z,100.00
2022-10-10T19:25:18.434Z,100.00
2022-10-10T19:30:25.620Z,100.00
2022-10-10T19:35:29.948Z,100.00
2022-10-10T19:40:36.754Z,100.00
2022-10-10T19:45:43.316Z,100.00
2022-10-10T19:50:51.742Z,100.00
2022-10-10T19:56:00.111Z,100.00
2022-10-10T20:01:09.349Z,100.00
2022-10-10T20:06:13.153Z,100.00
2022-10-10T20:11:18.714Z,100.00
2022-10-10T20:16:24.370Z,100.00
2022-10-10T20:21:31.352Z,100.00
2022-10-10T20:26:35.407Z,100.00
2022-10-10T20:31:40.778Z,100.00
2022-10-10T20:36:44.155Z,100.00
2022-10-10T20:41:47.640Z,100.00
2022-10-10T20:46:52.354Z,100.00
2022-10-10T20:51:55.987Z,100.00
2022-10-10T20:56:59.488Z,100.00
2022-10-10T21:02:04.274Z,100.00
2022-10-10T21:07:07.813Z,100.00
2022-10-10T21:12:11.364Z,100.00
2022-10-10T21:17:16.132Z,100.00
2022-10-10T21:22:20.655Z,100.00
2022-10-10T21:27:24.095Z,100.00
2022-10-10T21:32:29.062Z,100.00
2022-10-10T21:37:33.282Z,100.00
2022-10-10T21:42:36.785Z,100.00
2022-10-10T21:47:43.733Z,100.00
2022-10-10T21:52:47.369Z,100.00
2022-10-10T21:57:50.824Z,100.00
2022-10-10T22:02:55.616Z,100.00
2022-10-10T22:07:59.273Z,100.00
2022-10-10T22:13:04.111Z,100.00
2022-10-10T22:18:09.075Z,100.00
2022-10-10T22:23:12.459Z,100.00
2022-10-10T22:28:16.740Z,100.00
2022-10-10T22:33:21.580Z,100.00
2022-10-10T22:38:24.872Z,100.00
2022-10-10T22:43:28.252Z,100.00
2022-10-10T22:48:33.096Z,100.00
2022-10-10T22:53:36.786Z,100.00
2022-10-10T22:58:40.201Z,100.00
2022-10-10T23:03:45.282Z,100.00
2022-10-10T23:08:48.632Z,100.00
2022-10-10T23:13:52.417Z,100.00
2022-10-10T23:18:58.881Z,100.00
2022-10-10T23:24:03.330Z,100.00
2022-10-10T23:29:06.705Z,100.00
2022-10-10T23:34:11.418Z,100.00
2022-10-10T23:39:14.758Z,100.00
2022-10-10T23:44:18.182Z,100.00
2022-10-10T23:49:23.442Z,100.00
2022-10-10T23:54:26.765Z,100.00
2022-10-10T23:59:30.328Z,100.00
